Time;durP1;ratioP1;P1;durP2;ratioP2;P2;SDS_P1;SDS_P2;PMS_P1;PMS_P2;Temp;Humidity;BMP_temperature;BMP_pressure;BME280_temperature;BME280_humidity;BME280_pressure;Samples;Min_cycle;Max_cycle;Signal;HPM_P1;HPM_P2
2021/07/16 00:00:45;;;;;;;;;10.00;9.25;;;;;18.94;62.65;101009.06;4957133;28;45200;-89
2021/07/16 00:03:12;;;;;;;;;12.50;11.50;;;;;18.85;62.34;100987.41;4956498;28;48057;-89
2021/07/16 00:05:40;;;;;;;;;14.00;10.00;;;;;19.09;62.31;101031.19;4956337;28;45494;-90
2021/07/16 00:08:07;;;;;;;;;12.75;10.00;;;;;18.90;62.16;101012.16;4956617;28;45292;-90
2021/07/16 00:10:32;;;;;;;;;8.75;8.75;;;;;18.83;62.94;101001.00;4959338;28;45083;-90
2021/07/16 00:12:57;;;;;;;;;12.00;12.00;;;;;18.87;62.21;101004.31;4943707;28;47102;-91
2021/07/16 00:15:29;;;;;;;;;10.75;7.75;;;;;18.60;62.57;100960.66;4959857;28;45603;-90
2021/07/16 00:17:54;;;;;;;;;9.50;8.50;;;;;18.76;62.59;100980.94;4959627;28;45232;-90
2021/07/16 00:20:21;;;;;;;;;11.75;10.00;;;;;18.91;62.71;101003.06;4943858;28;45290;-89
2021/07/16 00:22:48;;;;;;;;;12.00;10.75;;;;;18.83;62.89;100995.63;4959519;28;47416;-91
2021/07/16 00:25:14;;;;;;;;;9.50;9.25;;;;;18.64;62.56;100969.38;4961039;28;45197;-88
2021/07/16 00:27:40;;;;;;;;;12.00;10.50;;;;;18.61;62.82;100967.78;4960951;28;45243;-89
2021/07/16 00:30:07;;;;;;;;;11.00;10.00;;;;;18.63;62.77;100970.34;4943686;28;45289;-88
2021/07/16 00:32:35;;;;;;;;;9.75;9.75;;;;;18.61;63.07;100972.28;4960666;28;45248;-90
2021/07/16 00:35:03;;;;;;;;;13.25;9.75;;;;;18.81;63.14;101000.25;4959613;28;46082;-89
2021/07/16 00:37:29;;;;;;;;;9.50;9.50;;;;;18.56;63.16;100955.66;4960701;28;45126;-91
2021/07/16 00:39:59;;;;;;;;;9.50;8.25;;;;;18.99;63.38;101035.63;4959818;28;45119;-90
2021/07/16 00:42:27;;;;;;;;;13.00;9.25;;;;;18.90;62.97;101015.69;4960033;28;45618;-91
2021/07/16 00:44:53;;;;;;;;;11.25;9.00;;;;;18.81;62.99;100989.47;4947956;28;45104;-90
2021/07/16 00:47:22;;;;;;;;;13.75;10.75;;;;;18.60;62.95;100965.22;4992466;28;45115;-89
2021/07/16 00:49:48;;;;;;;;;10.75;6.75;;;;;18.72;62.57;100977.63;4960035;28;45271;-89
2021/07/16 00:52:14;;;;;;;;;12.50;10.00;;;;;18.62;63.18;100972.16;4975105;28;47379;-88
2021/07/16 00:54:39;;;;;;;;;9.25;7.50;;;;;18.56;62.87;100964.59;4959023;28;46016;-90
2021/07/16 00:57:07;;;;;;;;;9.00;9.00;;;;;18.58;63.30;100981.50;4960403;28;45296;-90
2021/07/16 00:59:33;;;;;;;;;12.00;9.75;;;;;18.69;63.30;100987.81;4960360;28;45195;-88
2021/07/16 01:02:00;;;;;;;;;10.25;8.75;;;;;18.65;63.30;100992.59;4975137;28;47230;-89
2021/07/16 01:04:29;;;;;;;;;11.50;7.75;;;;;18.57;63.34;100978.91;4991769;28;45722;-89
2021/07/16 01:06:54;;;;;;;;;8.50;8.25;;;;;18.51;63.77;100971.34;4959321;28;45461;-90
2021/07/16 01:09:20;;;;;;;;;9.50;9.00;;;;;18.73;63.57;101005.44;4975373;28;45278;-88
2021/07/16 01:11:46;;;;;;;;;9.75;8.50;;;;;18.44;63.33;100947.63;4975156;28;47245;-88
2021/07/16 01:14:15;;;;;;;;;9.00;8.75;;;;;18.69;63.45;100993.22;4975589;28;45307;-88
2021/07/16 01:16:40;;;;;;;;;10.50;8.50;;;;;18.61;63.41;100985.75;4958507;28;45097;-89
2021/07/16 01:19:09;;;;;;;;;10.00;10.00;;;;;18.61;63.84;100991.13;4975335;28;45173;-91
2021/07/16 01:21:41;;;;;;;;;9.50;9.50;;;;;18.62;64.04;100992.84;4990191;28;47340;-90
2021/07/16 01:24:13;;;;;;;;;10.00;9.75;;;;;18.44;63.77;100958.41;4991709;28;45568;-88
2021/07/16 01:26:41;;;;;;;;;11.00;10.25;;;;;18.67;64.22;100998.72;4974952;28;45238;-90
2021/07/16 01:29:09;;;;;;;;;10.25;10.00;;;;;18.69;63.70;101009.38;4991536;28;45212;-88
2021/07/16 01:31:36;;;;;;;;;10.50;9.00;;;;;18.77;64.08;101021.22;4958240;28;47618;-90
2021/07/16 01:34:05;;;;;;;;;9.50;9.50;;;;;18.64;63.86;101012.47;4991469;28;45566;-90
2021/07/16 01:36:30;;;;;;;;;7.00;7.00;;;;;18.59;64.07;100998.50;4991441;28;45326;-90
2021/07/16 01:38:56;;;;;;;;;12.00;8.00;;;;;18.31;63.83;100951.44;4975147;28;45291;-90
2021/07/16 01:41:28;;;;;;;;;9.75;7.75;;;;;18.60;64.32;101011.00;4991046;28;47100;-90
2021/07/16 01:43:56;;;;;;;;;10.50;10.00;;;;;18.48;64.01;100982.38;4958495;28;45216;-89
2021/07/16 01:46:22;;;;;;;;;9.00;8.00;;;;;18.55;64.50;101005.97;4974932;28;45303;-91
2021/07/16 01:48:48;;;;;;;;;13.00;9.50;;;;;18.55;64.45;101013.19;4957978;28;45310;-90
2021/07/16 01:51:18;;;;;;;;;11.50;8.25;;;;;18.50;64.26;101005.50;4958395;28;47964;-89
2021/07/16 01:53:55;;;;;;;;;7.75;7.00;;;;;18.66;64.25;101032.03;4963890;28;45293;-90
2021/07/16 01:56:35;;;;;;;;;9.00;9.00;;;;;18.67;64.31;101038.25;4978315;28;45128;-91
2021/07/16 01:59:37;;;;;;;;;11.50;10.50;;;;;18.35;64.18;100990.59;4978980;28;45387;-90
2021/07/16 02:02:08;;;;;;;;;11.00;9.25;;;;;18.54;64.29;101027.63;4977824;28;47406;-90
2021/07/16 02:04:34;;;;;;;;;12.00;10.75;;;;;18.40;64.48;100996.47;4977719;28;45137;-89
2021/07/16 02:07:01;;;;;;;;;11.75;9.00;;;;;18.42;64.26;100995.34;4977847;28;45192;-90
2021/07/16 02:09:40;;;;;;;;;12.75;11.75;;;;;18.51;64.33;101006.34;4961798;28;45394;-90
2021/07/16 02:12:13;;;;;;;;;12.50;8.25;;;;;18.57;64.42;101024.69;4977650;28;47633;-89
2021/07/16 02:14:39;;;;;;;;;9.00;9.00;;;;;18.55;64.48;101015.88;4978666;28;45366;-89
2021/07/16 02:17:06;;;;;;;;;8.75;7.75;;;;;18.56;64.64;101021.16;4961472;28;45268;-89
2021/07/16 02:19:52;;;;;;;;;9.00;9.00;;;;;18.41;64.37;100990.97;4976668;28;45459;-89
2021/07/16 02:22:37;;;;;;;;;8.50;7.50;;;;;18.38;64.64;100983.09;4961109;28;46243;-90
2021/07/16 02:25:28;;;;;;;;;8.00;8.00;;;;;18.31;64.65;100976.50;4978711;28;45177;-90
2021/07/16 02:28:14;;;;;;;;;9.75;8.50;;;;;18.47;64.61;101000.38;4978175;28;45243;-90
2021/07/16 02:30:43;;;;;;;;;7.25;7.25;;;;;18.45;64.57;100997.81;4975415;28;45282;-90
2021/07/16 02:33:39;;;;;;;;;10.25;10.25;;;;;18.58;64.99;101021.91;4992291;28;45670;-90
2021/07/16 02:36:10;;;;;;;;;8.25;7.50;;;;;18.53;64.83;101012.47;4959749;28;45165;-90
2021/07/16 02:38:46;;;;;;;;;9.00;8.00;;;;;18.41;65.03;100998.16;4961163;28;45323;-89
2021/07/16 02:41:34;;;;;;;;;8.50;7.75;;;;;18.29;64.91;100982.03;4975876;28;45473;-90
2021/07/16 02:44:05;;;;;;;;;8.00;8.00;;;;;18.41;64.77;100998.16;4978302;28;45463;-89
2021/07/16 02:46:31;;;;;;;;;11.75;8.50;;;;;18.54;65.25;101024.94;4961453;28;45186;-89
2021/07/16 02:49:08;;;;;;;;;8.25;7.75;;;;;18.15;65.16;100950.00;4961119;28;45207;-89
2021/07/16 02:51:37;;;;;;;;;7.75;7.25;;;;;18.37;65.29;100994.88;4961346;28;45173;-90
2021/07/16 02:54:03;;;;;;;;;11.25;10.00;;;;;18.21;65.39;100962.97;4957603;28;47258;-89
2021/07/16 02:56:34;;;;;;;;;6.75;6.75;;;;;18.47;65.02;101008.44;4973358;28;45251;-91
2021/07/16 02:59:02;;;;;;;;;10.00;8.25;;;;;18.17;65.08;100961.50;4958509;28;45160;-91
2021/07/16 03:01:31;;;;;;;;;8.25;6.25;;;;;18.45;65.64;100995.13;4958402;28;45275;-90
2021/07/16 03:04:19;;;;;;;;;6.50;6.50;;;;;18.50;64.87;101004.63;4959686;28;46458;-89
2021/07/16 03:07:05;;;;;;;;;6.75;6.25;;;;;18.28;65.15;100977.66;4958683;28;45600;-91
2021/07/16 03:09:57;;;;;;;;;10.00;7.00;;;;;18.43;65.16;100996.22;4971267;28;45283;-89
2021/07/16 03:12:23;;;;;;;;;7.50;6.25;;;;;18.28;65.58;100980.34;4990091;28;45097;-89
2021/07/16 03:14:52;;;;;;;;;8.25;7.00;;;;;18.27;64.86;100967.84;4956942;28;46271;-89
2021/07/16 03:17:20;;;;;;;;;6.50;6.25;;;;;18.19;64.94;100956.84;4958261;28;45311;-89
2021/07/16 03:19:50;;;;;;;;;7.75;6.00;;;;;18.30;65.09;100977.50;4988638;28;45050;-90
2021/07/16 03:22:20;;;;;;;;;7.75;6.75;;;;;18.42;65.35;101003.41;4957319;28;45188;-90
2021/07/16 03:25:15;;;;;;;;;8.00;6.00;;;;;18.39;64.98;100995.59;4973319;28;47514;-90
2021/07/16 03:27:42;;;;;;;;;10.75;6.75;;;;;18.25;65.22;100963.56;4958325;28;45659;-89
2021/07/16 03:30:52;;;;;;;;;7.00;6.25;;;;;18.52;64.82;101000.84;4958682;28;45305;-89
2021/07/16 03:33:20;;;;;;;;;7.50;6.25;;;;;18.44;64.91;100982.63;4958387;28;45281;-88
2021/07/16 03:35:53;;;;;;;;;7.00;5.75;;;;;18.47;65.21;100984.22;4973296;28;47734;-89
2021/07/16 03:38:40;;;;;;;;;5.75;5.75;;;;;18.33;64.87;100957.53;4958026;28;45267;-90
2021/07/16 03:41:11;;;;;;;;;5.75;5.00;;;;;18.33;64.76;100968.31;4973373;28;45259;-89
2021/07/16 03:43:39;;;;;;;;;7.00;7.00;;;;;18.58;65.19;101018.31;4956640;28;45419;-90
2021/07/16 03:46:13;;;;;;;;;8.00;6.75;;;;;18.55;65.13;101014.03;4961486;28;45379;-89
2021/07/16 03:48:46;;;;;;;;;10.25;6.50;;;;;18.27;65.42;100959.78;4961377;28;45154;-89
2021/07/16 03:51:13;;;;;;;;;7.50;6.00;;;;;18.55;64.84;101013.19;4953791;28;45552;-89
2021/07/16 03:53:44;;;;;;;;;8.25;8.25;;;;;18.46;65.37;100995.97;4960136;28;45373;-89
2021/07/16 03:56:14;;;;;;;;;7.00;6.00;;;;;18.32;64.96;100974.69;4943732;28;47204;-91
2021/07/16 03:59:00;;;;;;;;;8.00;7.75;;;;;18.53;65.08;101012.47;4943931;28;45696;-90
2021/07/16 04:01:34;;;;;;;;;9.00;7.50;;;;;18.68;65.53;101040.81;4942507;28;45294;-89
2021/07/16 04:04:04;;;;;;;;;9.00;7.75;;;;;18.24;65.43;100973.50;4960366;28;45410;-89
2021/07/16 04:06:32;;;;;;;;;8.50;7.75;;;;;18.40;65.58;100997.31;4960969;28;46434;-89
2021/07/16 04:09:26;;;;;;;;;9.75;7.00;;;;;18.51;65.19;101011.72;4961201;28;45258;-89
2021/07/16 04:12:13;;;;;;;;;6.75;6.75;;;;;18.23;65.31;100962.84;4961205;28;45316;-90
2021/07/16 04:14:46;;;;;;;;;7.00;7.00;;;;;18.50;65.17;101007.31;4960567;28;45297;-90
2021/07/16 04:17:19;;;;;;;;;11.50;7.75;;;;;18.45;65.82;101003.19;4944596;28;48595;-88
2021/07/16 04:20:18;;;;;;;;;9.75;7.50;;;;;18.17;65.26;100961.50;4928484;28;45191;-90
2021/07/16 04:22:56;;;;;;;;;8.00;7.00;;;;;18.38;65.60;101004.63;4943477;28;45214;-89
2021/07/16 04:25:32;;;;;;;;;6.50;6.50;;;;;18.43;66.04;101017.75;4945566;28;45116;-91
2021/07/16 04:28:04;;;;;;;;;7.00;6.25;;;;;18.41;65.73;101019.69;4944722;28;46836;-90
2021/07/16 04:30:32;;;;;;;;;5.50;5.50;;;;;18.54;66.30;101047.34;4943584;28;45633;-89
2021/07/16 04:33:06;;;;;;;;;8.00;6.00;;;;;18.37;66.18;101019.09;4943955;28;45120;-89
2021/07/16 04:36:00;;;;;;;;;6.25;6.25;;;;;18.26;66.52;101008.34;4959102;28;45192;-89
2021/07/16 04:38:28;;;;;;;;;7.25;6.75;;;;;18.34;66.19;101010.41;4960580;28;46267;-91
2021/07/16 04:40:55;;;;;;;;;7.25;6.75;;;;;18.39;66.60;101030.59;4943499;28;45198;-89
2021/07/16 04:43:23;;;;;;;;;7.50;5.25;;;;;18.16;66.94;100981.31;4943626;28;45127;-90
2021/07/16 04:45:55;;;;;;;;;8.25;6.50;;;;;18.22;66.81;100998.81;4942752;28;45473;-89
2021/07/16 04:48:21;;;;;;;;;6.50;6.50;;;;;18.28;66.52;101012.63;4959418;28;45654;-89
2021/07/16 04:51:06;;;;;;;;;5.50;5.00;;;;;18.15;66.78;100989.50;4946787;28;45661;-88
2021/07/16 04:53:31;;;;;;;;;5.25;5.25;;;;;18.48;67.18;101058.59;4979288;28;45176;-92
2021/07/16 04:55:56;;;;;;;;;7.00;6.00;;;;;18.25;66.68;101020.09;4966484;28;45180;-86
2021/07/16 04:58:22;;;;;;;;;6.75;6.50;;;;;18.45;66.79;101056.16;4968409;28;45300;-92
2021/07/16 05:00:47;;;;;;;;;6.50;6.00;;;;;18.44;66.79;101057.13;4970046;28;45169;-92
2021/07/16 05:03:12;;;;;;;;;8.00;6.50;;;;;18.44;66.92;101054.44;4972390;28;44718;-91
2021/07/16 05:05:38;;;;;;;;;6.75;4.50;;;;;18.32;66.76;101036.59;4975239;28;44813;-91
2021/07/16 05:08:03;;;;;;;;;5.75;5.25;;;;;18.37;66.73;101053.22;4978164;28;45364;-91
2021/07/16 05:10:28;;;;;;;;;6.00;4.75;;;;;18.39;66.68;101059.34;4961176;28;45325;-90
2021/07/16 05:12:54;;;;;;;;;6.25;4.75;;;;;18.40;66.83;101056.53;4960473;28;45278;-90
2021/07/16 05:15:19;;;;;;;;;4.50;4.00;;;;;18.42;66.71;101059.94;4960507;28;45301;-89
2021/07/16 05:17:45;;;;;;;;;5.00;5.00;;;;;18.43;66.83;101063.53;4960462;28;46047;-90
2021/07/16 05:20:11;;;;;;;;;7.25;5.25;;;;;18.42;66.95;101064.50;4961154;28;45201;-91
2021/07/16 05:23:01;;;;;;;;;5.25;5.25;;;;;18.34;66.59;101053.47;4964537;28;45221;-89
2021/07/16 05:25:29;;;;;;;;;5.00;5.00;;;;;18.21;67.04;101035.63;4943449;28;45188;-88
2021/07/16 05:28:19;;;;;;;;;9.00;5.25;;;;;18.26;67.01;101046.03;4959361;28;47264;-91
2021/07/16 05:31:00;;;;;;;;;8.25;5.25;;;;;18.17;67.05;101023.41;4942736;28;45133;-90
2021/07/16 05:33:32;;;;;;;;;5.25;4.00;;;;;18.39;66.84;101070.13;4960233;28;45199;-90
2021/07/16 05:36:01;;;;;;;;;6.75;5.75;;;;;18.01;66.86;101009.44;4942480;28;45462;-90
2021/07/16 05:38:37;;;;;;;;;4.50;4.00;;;;;18.01;67.08;101010.28;4959852;28;45670;-91
2021/07/16 05:41:07;;;;;;;;;4.75;4.50;;;;;18.35;66.89;101056.03;4959026;28;45048;-90
2021/07/16 05:43:42;;;;;;;;;6.25;4.50;;;;;18.13;66.94;101016.56;4958786;28;45380;-91
2021/07/16 05:46:14;;;;;;;;;6.00;5.00;;;;;18.30;66.68;101044.81;4958745;28;45281;-91
2021/07/16 05:49:02;;;;;;;;;7.25;5.75;;;;;18.25;66.47;101038.94;4926959;28;47961;-89
2021/07/16 05:51:29;;;;;;;;;5.25;4.00;;;;;18.34;66.61;101046.28;4942403;28;45632;-90
2021/07/16 05:54:20;;;;;;;;;6.00;4.75;;;;;18.43;66.26;101058.97;4959508;28;45148;-90
2021/07/16 05:56:53;;;;;;;;;5.50;3.50;;;;;18.33;66.78;101041.88;4956878;28;45477;-91
2021/07/16 05:59:54;;;;;;;;;5.00;4.00;;;;;18.52;66.59;101065.44;4945658;28;46748;-90
2021/07/16 06:02:24;;;;;;;;;6.00;5.25;;;;;18.51;66.72;101063.72;4942425;28;45278;-90
2021/07/16 06:04:51;;;;;;;;;5.50;4.75;;;;;18.59;66.01;101079.28;4957700;28;45128;-90
2021/07/16 06:10:05;;;;;;;;;5.75;5.75;;;;;18.34;66.66;101027.44;4976902;28;46502;-90
2021/07/16 06:13:00;;;;;;;;;8.75;5.50;;;;;18.66;66.09;101077.81;4963232;28;45705;-89
2021/07/16 06:15:30;;;;;;;;;5.50;5.25;;;;;18.66;66.30;101091.28;4977740;28;45285;-89
2021/07/16 06:17:58;;;;;;;;;7.00;4.75;;;;;18.66;66.10;101080.50;4975694;28;45459;-89
2021/07/16 06:20:28;;;;;;;;;5.00;5.00;;;;;18.50;66.39;101048.59;4978551;28;45363;-89
2021/07/16 06:23:17;;;;;;;;;5.25;3.75;;;;;18.35;66.26;101021.03;4978494;28;45416;-90
2021/07/16 06:25:50;;;;;;;;;4.00;3.25;;;;;18.48;66.05;101036.22;4945044;28;45280;-90
2021/07/16 06:28:38;;;;;;;;;5.00;4.25;;;;;18.62;65.79;101060.19;4977796;28;45280;-89
2021/07/16 06:31:30;;;;;;;;;4.00;4.00;;;;;18.76;65.62;101081.44;4978140;28;45302;-91
2021/07/16 06:34:22;;;;;;;;;3.50;3.00;;;;;18.82;65.46;101084.66;4961318;28;45198;-89
2021/07/16 06:37:19;;;;;;;;;2.25;2.25;;;;;18.63;65.56;101059.22;4960112;28;45210;-91
2021/07/16 06:40:08;;;;;;;;;4.00;3.50;;;;;18.92;65.33;101102.63;4978293;28;45437;-89
2021/07/16 06:42:34;;;;;;;;;3.75;3.00;;;;;18.95;65.19;101118.56;4962039;28;46718;-90
2021/07/16 06:45:11;;;;;;;;;3.00;3.00;;;;;18.62;65.47;101061.03;4980411;28;45327;-91
2021/07/16 06:47:38;;;;;;;;;4.00;2.00;;;;;18.91;64.82;101095.56;4957832;28;45300;-90
2021/07/16 06:50:15;;;;;;;;;2.25;2.25;;;;;18.81;64.67;101086.47;4921708;28;45423;-89
2021/07/16 06:53:03;;;;;;;;;3.75;3.75;;;;;18.94;64.97;101097.13;4936967;28;45182;-89
2021/07/16 06:56:16;;;;;;;;;4.00;3.00;;;;;18.80;64.98;101082.06;4935397;28;45517;-90
2021/07/16 06:59:08;;;;;;;;;4.50;2.00;;;;;19.00;64.90;101109.22;4935230;28;45275;-90
2021/07/16 07:01:58;;;;;;;;;3.50;2.25;;;;;19.04;64.81;101105.31;4936283;28;45412;-88
2021/07/16 07:04:33;;;;;;;;;2.50;2.50;;;;;19.14;65.19;101128.69;4921403;28;46186;-91
2021/07/16 07:07:07;;;;;;;;;3.50;2.50;;;;;18.85;64.45;101079.84;4937053;28;45580;-89
2021/07/16 07:09:59;;;;;;;;;4.75;2.00;;;;;18.96;64.08;101105.94;4936538;28;45304;-89
2021/07/16 07:12:39;;;;;;;;;2.50;2.00;;;;;19.16;64.66;101130.41;4921438;28;45123;-90
2021/07/16 07:15:06;;;;;;;;;1.00;1.00;;;;;18.94;64.38;101095.31;4986402;23;46125;-89
2021/07/16 07:18:19;;;;;;;;;2.00;2.00;;;;;18.94;64.82;101094.44;4982858;28;45570;-90
2021/07/16 07:21:15;;;;;;;;;5.00;2.25;;;;;18.88;64.28;101074.22;4994945;28;45330;-91
2021/07/16 07:24:33;;;;;;;;;5.00;3.75;;;;;18.95;64.47;101072.78;4997856;28;45322;-92
2021/07/16 07:27:25;;;;;;;;;2.00;2.00;;;;;19.13;64.49;101100.00;4997572;28;47017;-90
2021/07/16 07:30:00;;;;;;;;;2.50;2.50;;;;;19.24;63.95;101112.59;4997057;28;45561;-90
2021/07/16 07:32:54;;;;;;;;;2.00;2.00;;;;;19.10;64.74;101086.78;4981204;28;45229;-90
2021/07/16 07:35:56;;;;;;;;;1.25;1.25;;;;;19.12;65.03;101081.28;4997966;28;45178;-88
2021/07/16 07:38:31;;;;;;;;;2.50;2.50;;;;;19.23;64.74;101100.09;4997358;28;46373;-90
2021/07/16 07:41:45;;;;;;;;;2.25;1.50;;;;;19.17;64.93;101102.44;4990721;28;45644;-89
2021/07/16 07:44:24;;;;;;;;;1.00;1.00;;;;;19.14;65.61;101109.81;4997099;28;45192;-91
2021/07/16 07:46:50;;;;;;;;;2.00;2.00;;;;;19.23;65.23;101124.38;4977655;28;45310;-89
2021/07/16 07:49:49;;;;;;;;;1.75;1.00;;;;;19.17;65.23;101126.72;4996923;28;46295;-89
2021/07/16 07:52:36;;;;;;;;;1.25;1.25;;;;;18.96;65.39;101106.78;4978597;28;45233;-89
2021/07/16 07:55:37;;;;;;;;;3.00;2.25;;;;;18.89;66.18;101096.66;4997122;28;45074;-90
2021/07/16 07:58:23;;;;;;;;;3.00;2.00;;;;;19.10;66.45;101142.56;4996983;28;45275;-90
2021/07/16 08:01:15;;;;;;;;;2.00;2.00;;;;;18.86;67.37;101104.97;4997305;28;46291;-89
2021/07/16 08:04:06;;;;;;;;;1.25;1.25;;;;;19.07;67.40;101153.56;4982729;28;45209;-91
2021/07/16 08:07:00;;;;;;;;;2.25;2.25;;;;;19.13;67.49;101174.63;4964534;28;45187;-90
2021/07/16 08:10:28;;;;;;;;;2.50;1.25;;;;;18.65;68.24;101124.56;4936980;28;45249;-90
2021/07/16 08:12:53;;;;;;;;;3.00;1.50;;;;;18.82;68.85;101158.22;4920443;28;45307;-90
2021/07/16 08:15:25;;;;;;;;;2.50;2.25;;;;;18.80;69.18;101161.03;4935470;28;45199;-90
2021/07/16 08:18:05;;;;;;;;;4.00;2.50;;;;;18.63;69.16;101123.84;4929067;28;45279;-88
2021/07/16 08:20:33;;;;;;;;;1.25;1.25;;;;;18.97;69.71;101169.66;4920904;28;45315;-89
2021/07/16 08:23:44;;;;;;;;;3.00;3.00;;;;;18.86;69.20;101140.00;4936277;28;48040;-91
2021/07/16 08:26:41;;;;;;;;;3.00;2.00;;;;;18.98;68.58;101149.78;4920241;28;45683;-91
2021/07/16 08:29:38;;;;;;;;;3.00;3.00;;;;;19.20;68.51;101175.00;4934747;28;45168;-89
2021/07/16 08:32:11;;;;;;;;;4.00;2.00;;;;;19.00;68.42;101130.78;4931483;28;45280;-91
2021/07/16 08:35:31;;;;;;;;;3.50;2.50;;;;;19.19;68.12;101159.81;4939411;28;46950;-91
2021/07/16 08:38:05;;;;;;;;;2.00;2.00;;;;;19.10;67.60;101146.09;4939168;28;45159;-88
2021/07/16 08:40:53;;;;;;;;;2.50;2.00;;;;;18.95;67.61;101132.06;4962246;28;45298;-89
2021/07/16 08:43:22;;;;;;;;;2.00;1.25;;;;;19.31;67.01;101204.59;4978795;28;45343;-91
2021/07/16 08:46:01;;;;;;;;;2.25;2.25;;;;;19.05;67.29;101177.94;4945949;28;45485;-89
2021/07/16 08:48:51;;;;;;;;;2.50;1.50;;;;;18.78;67.46;101152.25;4979193;28;45116;-89
2021/07/16 08:51:30;;;;;;;;;4.00;3.00;;;;;18.91;67.57;101186.28;4960735;28;45293;-90
2021/07/16 08:54:10;;;;;;;;;3.25;3.25;;;;;18.84;67.15;101185.03;4947509;28;45477;-89
2021/07/16 08:56:59;;;;;;;;;3.00;3.00;;;;;18.78;67.16;101186.38;4978752;28;46058;-91
2021/07/16 08:59:34;;;;;;;;;2.75;2.75;;;;;18.67;67.08;101164.84;4980052;28;45542;-90
2021/07/16 09:02:05;;;;;;;;;4.50;2.75;;;;;18.67;67.32;101168.41;4963156;28;45102;-89
2021/07/16 09:04:40;;;;;;;;;3.75;2.25;;;;;18.68;67.32;101170.09;4975157;28;45385;-89
2021/07/16 09:07:20;;;;;;;;;4.50;3.00;;;;;18.72;67.60;101168.88;4978628;28;47142;-89
2021/07/16 09:09:50;;;;;;;;;4.75;2.00;;;;;18.68;67.56;101150.41;4979729;28;45286;-88
2021/07/16 09:13:03;;;;;;;;;4.00;4.00;;;;;18.83;67.56;101161.78;4979894;28;45273;-90
2021/07/16 09:16:01;;;;;;;;;2.50;2.00;;;;;19.13;67.12;101193.50;4974519;28;45098;-92
2021/07/16 09:19:06;;;;;;;;;4.00;3.00;;;;;19.11;65.98;101172.06;4979122;28;48099;-89
2021/07/16 09:22:06;;;;;;;;;6.00;5.00;;;;;19.26;65.50;101182.56;4979834;28;45531;-90
2021/07/16 09:25:04;;;;;;;;;3.00;2.50;;;;;18.97;64.97;101140.00;4999229;28;45118;-90
2021/07/16 09:27:49;;;;;;;;;2.00;2.00;;;;;19.44;64.09;101224.19;4903804;28;45227;-90
2021/07/16 09:31:05;;;;;;;;;1.00;1.00;;;;;19.44;64.01;101220.66;4915391;28;45173;-90
2021/07/16 09:33:41;;;;;;;;;3.25;2.00;;;;;19.19;64.35;101184.06;4903858;28;45319;-89
2021/07/16 09:36:55;;;;;;;;;5.50;3.25;;;;;19.30;64.92;101214.53;4919281;28;45350;-91
2021/07/16 09:39:25;;;;;;;;;5.00;4.00;;;;;19.10;64.30;101191.06;4913613;28;45269;-89
2021/07/16 09:42:08;;;;;;;;;3.25;3.25;;;;;19.05;64.70;101204.88;4905184;28;47316;-89
2021/07/16 09:44:45;;;;;;;;;5.00;4.00;;;;;19.18;65.17;101228.16;4903703;28;45646;-89
2021/07/16 09:47:21;;;;;;;;;5.00;5.00;;;;;18.79;64.44;101166.56;4917289;28;45370;-91
2021/07/16 09:50:13;;;;;;;;;4.25;4.00;;;;;18.79;64.73;101167.41;4903773;28;45438;-90
2021/07/16 09:52:49;;;;;;;;;4.00;4.00;;;;;19.10;63.99;101209.94;4917666;28;46254;-89
2021/07/16 09:55:59;;;;;;;;;4.50;4.00;;;;;19.08;63.98;101198.41;4919799;28;45472;-90
2021/07/16 09:58:38;;;;;;;;;5.00;4.25;;;;;19.32;64.22;101227.88;4903602;28;45342;-89
2021/07/16 10:01:11;;;;;;;;;7.75;4.75;;;;;19.04;63.70;101167.28;4905975;28;45300;-90
2021/07/16 10:04:00;;;;;;;;;5.50;2.00;;;;;19.47;64.00;101229.34;4950478;28;45342;-90
2021/07/16 10:07:12;;;;;;;;;6.25;5.00;;;;;19.48;63.27;101212.19;4995562;28;45545;-89
2021/07/16 10:09:40;;;;;;;;;3.25;3.25;;;;;19.54;62.14;101213.50;4996084;28;45137;-89
2021/07/16 10:12:31;;;;;;;;;5.75;5.00;;;;;19.21;62.03;101182.97;4981307;28;45296;-89
2021/07/16 10:15:42;;;;;;;;;7.25;5.50;;;;;19.44;62.42;101231.44;4998654;28;46862;-89
2021/07/16 10:18:38;;;;;;;;;4.25;4.25;;;;;19.44;61.30;101240.38;4995415;28;45232;-90
2021/07/16 10:21:26;;;;;;;;;4.00;3.00;;;;;19.21;61.45;101212.63;4999403;28;45176;-89
2021/07/16 10:24:18;;;;;;;;;2.50;2.00;;;;;19.02;61.25;101182.75;4999203;28;45230;-89
2021/07/16 10:27:07;;;;;;;;;2.50;2.50;;;;;19.42;61.33;101230.69;4980794;28;46199;-89
2021/07/16 10:29:46;;;;;;;;;5.00;5.00;;;;;19.19;60.92;101176.81;4965487;28;45211;-90
2021/07/16 10:32:32;;;;;;;;;4.50;4.50;;;;;19.49;61.31;101197.69;4979196;28;45176;-89
2021/07/16 10:35:29;;;;;;;;;4.00;4.00;;;;;19.64;60.77;101203.66;4996689;28;45082;-91
2021/07/16 10:38:00;;;;;;;;;4.50;3.50;;;;;20.08;60.66;101237.84;4996804;28;47039;-90
2021/07/16 10:41:21;;;;;;;;;4.00;4.00;;;;;20.12;59.78;101206.91;4998077;28;45212;-89
2021/07/16 10:43:47;;;;;;;;;4.75;4.00;;;;;20.21;59.67;101186.34;4996588;28;45232;-89
2021/07/16 10:46:53;;;;;;;;;6.50;6.25;;;;;20.26;58.52;101167.94;4998339;28;45236;-90
2021/07/16 10:49:58;;;;;;;;;8.25;6.75;;;;;20.39;58.06;101195.56;4996755;28;47969;-90
2021/07/16 10:52:48;;;;;;;;;8.00;5.00;;;;;20.67;58.32;101252.63;4975727;28;45945;-89
2021/07/16 10:56:01;;;;;;;;;8.00;5.25;;;;;20.31;58.70;101211.59;4997952;28;45241;-89
2021/07/16 10:58:49;;;;;;;;;6.00;5.25;;;;;20.47;58.86;101255.19;4914656;28;45372;-89
2021/07/16 11:01:43;;;;;;;;;8.00;7.00;;;;;20.53;58.29;101267.31;4918016;28;46582;-88
2021/07/16 11:04:35;;;;;;;;;7.50;5.50;;;;;20.35;57.96;101254.41;4917810;28;45598;-89
2021/07/16 11:07:05;;;;;;;;;8.25;6.00;;;;;20.32;58.33;101264.59;4918245;28;45181;-89
2021/07/16 11:10:02;;;;;;;;;8.75;6.75;;;;;19.95;58.00;101213.75;4917356;28;45332;-92
2021/07/16 11:13:09;;;;;;;;;8.25;7.00;;;;;19.82;57.87;101206.69;4918421;28;45504;-89
2021/07/16 11:15:38;;;;;;;;;8.25;8.25;;;;;20.05;57.28;101246.22;4902086;28;45467;-91
2021/07/16 11:18:34;;;;;;;;;8.75;6.00;;;;;20.04;58.15;101264.25;4916919;28;45239;-90
2021/07/16 11:21:01;;;;;;;;;8.25;7.00;;;;;19.84;58.16;101217.38;4934270;28;45383;-90
2021/07/16 11:24:00;;;;;;;;;11.00;7.50;;;;;20.17;57.65;101270.31;4916333;28;45773;-90
2021/07/16 11:26:52;;;;;;;;;8.00;6.00;;;;;20.03;57.43;101240.09;4886421;28;45233;-89
2021/07/16 11:29:51;;;;;;;;;9.25;7.00;;;;;20.12;57.30;101239.31;4918367;28;45241;-89
2021/07/16 11:32:21;;;;;;;;;7.75;6.50;;;;;20.20;57.08;101239.50;4901981;28;45053;-89
2021/07/16 11:35:24;;;;;;;;;6.75;6.75;;;;;20.15;57.47;101223.72;4946683;28;47273;-89
2021/07/16 11:38:08;;;;;;;;;8.00;6.50;;;;;20.33;57.62;101233.91;4997405;28;45330;-90
2021/07/16 11:41:18;;;;;;;;;9.75;7.00;;;;;20.27;56.70;101213.69;4997290;28;45172;-88
2021/07/16 11:43:50;;;;;;;;;9.00;6.00;;;;;20.26;56.43;101217.38;4995823;28;45478;-89
2021/07/16 11:46:44;;;;;;;;;11.25;8.00;;;;;20.43;57.06;101232.13;4979729;28;45292;-89
2021/07/16 11:49:44;;;;;;;;;9.25;9.25;;;;;20.72;57.19;101280.09;4994297;28;45701;-91
2021/07/16 11:52:41;;;;;;;;;8.75;6.75;;;;;20.37;56.93;101218.31;4997291;28;45263;-90
2021/07/16 11:55:36;;;;;;;;;11.00;9.00;;;;;20.84;55.86;101275.50;4982046;28;45078;-91
2021/07/16 11:58:31;;;;;;;;;9.25;8.25;;;;;20.78;56.04;101265.19;4996440;28;46639;-89
2021/07/16 12:01:24;;;;;;;;;7.25;7.25;;;;;20.51;56.01;101209.88;4973920;28;45263;-90
2021/07/16 12:04:23;;;;;;;;;11.75;9.00;;;;;20.78;55.63;101251.69;4979906;28;45283;-90
2021/07/16 12:07:16;;;;;;;;;9.25;8.00;;;;;20.50;55.81;101217.09;4982028;28;45143;-89
2021/07/16 12:09:49;;;;;;;;;7.75;7.75;;;;;20.37;56.19;101202.97;4999297;28;47247;-90
2021/07/16 12:12:38;;;;;;;;;8.00;8.00;;;;;20.53;55.86;101246.53;4983070;28;45547;-91
2021/07/16 12:15:29;;;;;;;;;8.75;8.25;;;;;20.32;55.58;101205.19;4996698;28;45278;-90
2021/07/16 12:18:48;;;;;;;;;6.75;6.75;;;;;20.42;55.61;101216.06;4983895;28;45338;-88
2021/07/16 12:21:24;;;;;;;;;7.75;7.25;;;;;20.82;55.31;101269.34;4923461;28;47107;-89
2021/07/16 12:24:12;;;;;;;;;9.50;9.50;;;;;20.87;55.55;101269.81;4939371;28;45070;-91
2021/07/16 12:26:47;;;;;;;;;12.50;10.75;;;;;20.50;55.56;101222.50;4936131;28;45357;-90